South Wheelock, Vermont
Current Conditions -  °F | °C
As of 1:55 AM on Friday 28 Nov 2014 (Local Time) from KCDA Reporting Station
Overcast Overcast  
Wind Chill: 23°   Ceiling: 1900
Heat Index: 23°   Visibility: 10mi
Dew Point: 19°   Wind: 0mph
Humidity: 83%   Direction: NA
Pressure: 29.98"   Gusts: NA
Location:  44.5541°N, 72.0612°W
Report Text: KCDA 280655Z AUTO 00000KT 10SM OVC019 M05/M07 A2998 RMK AO2 T10501075
Loading
Personal Weather Stations






























Interactive Weather Map New forecast layout! Learn more

10-Day Weather Forecast

Advertisements
Track Severe Weather on mobile